Time;durP1;ratioP1;P1;durP2;ratioP2;P2;SDS_P1;SDS_P2;PMS_P1;PMS_P2;Temp;Humidity;BMP_temperature;BMP_pressure;BME280_temperature;BME280_humidity;BME280_pressure;Samples;Min_cycle;Max_cycle;Signal;HPM_P1;HPM_P2
2023/04/10 00:01:34;;;;;;;79.77;35.63;;;6.20;99.90;;;;;;4443845;28;659466;-68
2023/04/10 00:04:22;;;;;;;81.23;35.77;;;6.20;99.90;;;;;;4428016;28;660277;-68
2023/04/10 00:07:09;;;;;;;91.83;36.10;;;6.20;99.90;;;;;;4447867;28;658404;-68
2023/04/10 00:09:58;;;;;;;88.00;36.07;;;6.20;99.90;;;;;;4430673;28;658406;-68
2023/04/10 00:12:45;;;;;;;100.13;39.27;;;6.10;99.90;;;;;;4437293;28;658333;-68
2023/04/10 00:15:32;;;;;;;92.70;38.00;;;6.20;99.90;;;;;;4460434;28;660980;-68
2023/04/10 00:18:19;;;;;;;104.77;40.53;;;6.20;99.90;;;;;;4455403;28;658674;-68
2023/04/10 00:21:07;;;;;;;105.30;39.20;;;6.30;99.90;;;;;;4414306;28;660678;-68
2023/04/10 00:23:54;;;;;;;106.83;40.33;;;6.30;99.90;;;;;;4448780;28;660251;-68
2023/04/10 00:26:43;;;;;;;118.10;40.77;;;6.20;99.90;;;;;;4428185;28;660252;-68
2023/04/10 00:29:30;;;;;;;127.50;42.17;;;6.10;99.90;;;;;;4432888;28;659587;-68
2023/04/10 00:32:17;;;;;;;121.63;41.83;;;6.20;99.90;;;;;;4450904;28;661060;-68
2023/04/10 00:35:06;;;;;;;131.50;44.17;;;6.10;99.90;;;;;;4449330;28;660004;-68
2023/04/10 00:37:55;;;;;;;120.97;43.37;;;6.20;99.90;;;;;;4456310;28;660099;-68
2023/04/10 00:40:42;;;;;;;133.13;45.13;;;6.20;99.90;;;;;;4424196;28;660524;-68
2023/04/10 00:43:32;;;;;;;127.87;43.33;;;6.20;99.90;;;;;;4441822;28;659880;-68
2023/04/10 00:46:19;;;;;;;124.00;43.73;;;6.20;99.90;;;;;;4440682;28;659544;-68
2023/04/10 00:49:08;;;;;;;129.67;43.63;;;6.20;99.90;;;;;;4423517;28;659381;-68
2023/04/10 00:51:55;;;;;;;121.13;42.70;;;6.20;99.90;;;;;;4431285;28;660122;-68
2023/04/10 00:54:42;;;;;;;121.30;43.27;;;6.20;99.90;;;;;;4440926;28;659811;-68
2023/04/10 00:57:31;;;;;;;116.93;40.97;;;6.20;99.90;;;;;;4440730;28;659372;-68
2023/04/10 01:00:20;;;;;;;122.67;41.13;;;6.20;99.90;;;;;;4447376;28;660401;-68
2023/04/10 01:03:07;;;;;;;110.93;40.83;;;6.20;99.90;;;;;;4422695;28;660969;-68
2023/04/10 01:05:59;;;;;;;120.13;41.33;;;6.20;99.90;;;;;;4441585;28;660843;-68
2023/04/10 01:08:51;;;;;;;109.13;39.03;;;6.10;99.90;;;;;;4389700;28;660575;-68
2023/04/10 01:11:45;;;;;;;117.93;40.60;;;6.10;99.90;;;;;;4422814;28;661106;-68
2023/04/10 01:14:36;;;;;;;114.20;41.10;;;6.00;99.90;;;;;;4390326;28;659931;-68
2023/04/10 01:17:33;;;;;;;113.07;39.47;;;6.10;99.90;;;;;;4425534;28;660934;-68
2023/04/10 01:20:21;;;;;;;134.77;42.57;;;6.10;99.90;;;;;;4413427;28;660426;-68
2023/04/10 01:23:53;;;;;;;122.17;42.10;;;6.00;99.90;;;;;;4444161;28;661014;-68
2023/04/10 01:26:50;;;;;;;132.90;42.97;;;6.00;99.90;;;;;;4404037;28;662550;-68
2023/04/10 01:29:39;;;;;;;127.53;42.67;;;6.00;99.90;;;;;;4402142;28;660497;-68
2023/04/10 01:32:26;;;;;;;131.80;43.13;;;6.10;99.90;;;;;;4416535;28;659985;-68
2023/04/10 01:35:14;;;;;;;142.53;44.03;;;6.00;99.90;;;;;;4451217;28;661931;-68
2023/04/10 01:38:02;;;;;;;135.60;42.90;;;6.00;99.90;;;;;;4429002;28;660125;-68
2023/04/10 01:40:51;;;;;;;134.57;43.60;;;6.00;99.90;;;;;;4413051;28;659491;-68
2023/04/10 01:43:39;;;;;;;130.33;42.23;;;6.00;99.90;;;;;;4409823;28;659824;-68
2023/04/10 01:46:27;;;;;;;145.53;43.27;;;6.00;99.90;;;;;;4368817;28;659884;-68
2023/04/10 01:49:14;;;;;;;136.30;41.87;;;6.00;99.90;;;;;;4369544;28;659833;-68
2023/04/10 01:52:02;;;;;;;132.57;43.43;;;6.00;99.90;;;;;;4425918;28;659461;-68
2023/04/10 01:54:49;;;;;;;179.13;44.80;;;6.10;99.90;;;;;;4442794;28;659871;-68
2023/04/10 01:57:36;;;;;;;136.13;43.43;;;6.00;99.90;;;;;;4436879;28;660018;-68
2023/04/10 02:00:23;;;;;;;173.32;44.47;;;6.00;99.90;;;;;;4449366;28;660424;-68
2023/04/10 02:03:12;;;;;;;134.40;41.47;;;6.00;99.90;;;;;;4430785;28;659962;-68
2023/04/10 02:06:08;;;;;;;153.33;42.27;;;6.00;99.90;;;;;;4451128;28;659785;-68
2023/04/10 02:08:57;;;;;;;154.70;43.33;;;6.00;99.90;;;;;;4411548;28;659880;-68
2023/04/10 02:11:47;;;;;;;184.40;43.87;;;6.00;99.90;;;;;;4442844;28;659977;-68
2023/04/10 02:14:36;;;;;;;189.43;44.25;;;6.10;99.90;;;;;;4425468;28;659850;-68
2023/04/10 02:17:26;;;;;;;187.80;43.57;;;6.10;99.90;;;;;;4422998;28;660338;-68
2023/04/10 02:20:14;;;;;;;161.03;43.60;;;6.10;99.90;;;;;;4419321;28;660150;-68
2023/04/10 02:23:02;;;;;;;180.43;43.40;;;6.10;99.90;;;;;;4432413;28;659890;-67
2023/04/10 02:25:49;;;;;;;168.10;40.13;;;6.10;99.90;;;;;;4447254;28;660344;-68
2023/04/10 02:28:38;;;;;;;247.07;41.90;;;6.10;99.90;;;;;;4425679;28;659827;-68
2023/04/10 02:31:25;;;;;;;203.00;40.33;;;6.10;99.90;;;;;;4440205;28;660081;-68
2023/04/10 02:34:12;;;;;;;162.33;40.33;;;6.20;99.90;;;;;;4448660;28;660775;-68
2023/04/10 02:37:02;;;;;;;206.37;40.30;;;6.10;99.90;;;;;;4454575;28;659860;-68
2023/04/10 02:39:49;;;;;;;130.20;39.80;;;6.20;99.90;;;;;;4454066;28;659663;-68
2023/04/10 02:42:36;;;;;;;218.10;40.60;;;6.20;99.90;;;;;;4421961;28;659566;-68
2023/04/10 02:45:23;;;;;;;334.37;43.10;;;6.10;99.90;;;;;;4437682;28;660527;-68
2023/04/10 02:48:10;;;;;;;176.93;40.13;;;6.10;99.90;;;;;;4438939;28;659850;-68
2023/04/10 02:50:58;;;;;;;261.33;40.47;;;6.00;99.90;;;;;;4447735;27;661237;-68
2023/04/10 02:53:47;;;;;;;183.87;38.63;;;6.00;99.90;;;;;;4428654;28;659017;-68
2023/04/10 02:56:35;;;;;;;232.07;41.93;;;6.00;99.90;;;;;;4437560;28;659741;-68
2023/04/10 02:59:23;;;;;;;191.27;41.70;;;5.90;99.90;;;;;;4446287;28;661075;-68
2023/04/10 03:02:10;;;;;;;184.60;41.77;;;6.00;99.90;;;;;;4436375;28;659717;-68
2023/04/10 03:04:57;;;;;;;250.40;42.73;;;6.00;99.90;;;;;;4447381;28;661063;-68
2023/04/10 03:07:45;;;;;;;294.37;41.73;;;6.00;99.90;;;;;;4437742;28;660663;-68
2023/04/10 03:10:33;;;;;;;195.07;41.53;;;5.90;99.90;;;;;;4431576;28;660708;-68
2023/04/10 03:13:22;;;;;;;223.77;43.00;;;6.00;99.90;;;;;;4432232;28;660685;-68
2023/04/10 03:16:09;;;;;;;361.88;45.08;;;6.00;99.90;;;;;;4451641;28;659969;-68
2023/04/10 03:18:56;;;;;;;190.07;40.17;;;6.00;99.90;;;;;;4437204;28;659528;-68
2023/04/10 03:21:44;;;;;;;477.60;44.47;;;6.10;99.90;;;;;;4454764;28;663141;-68
2023/04/10 03:24:31;;;;;;;302.03;41.60;;;6.00;99.90;;;;;;4423412;28;659608;-68
2023/04/10 03:27:19;;;;;;;415.70;44.13;;;6.10;99.90;;;;;;4461027;28;661844;-68
2023/04/10 03:30:08;;;;;;;361.07;45.00;;;6.00;99.90;;;;;;4423547;28;660949;-68
2023/04/10 03:32:55;;;;;;;445.20;48.90;;;6.00;99.90;;;;;;4430056;28;661125;-68
2023/04/10 03:35:42;;;;;;;277.70;44.57;;;6.00;99.90;;;;;;4458208;28;660128;-68
2023/04/10 03:38:30;;;;;;;267.47;45.93;;;6.00;99.90;;;;;;4454536;28;659968;-68
2023/04/10 03:41:17;;;;;;;242.20;45.33;;;6.00;99.90;;;;;;4457585;28;660156;-68
2023/04/10 03:44:06;;;;;;;280.10;46.77;;;6.00;99.90;;;;;;4450379;28;660028;-68
2023/04/10 03:46:53;;;;;;;323.07;47.27;;;6.00;99.90;;;;;;4427107;28;660421;-68
2023/04/10 03:49:40;;;;;;;415.77;51.17;;;6.00;99.90;;;;;;4419906;28;659421;-68
2023/04/10 03:52:27;;;;;;;420.77;52.70;;;6.00;99.90;;;;;;4462610;27;659879;-68
2023/04/10 03:55:17;;;;;;;398.10;47.73;;;5.90;99.90;;;;;;4448206;28;659600;-68
2023/04/10 03:58:05;;;;;;;419.97;50.60;;;5.90;99.90;;;;;;4456834;28;659708;-68
2023/04/10 04:00:53;;;;;;;351.40;49.40;;;5.90;99.90;;;;;;4433285;28;660236;-68
2023/04/10 04:03:40;;;;;;;483.60;51.73;;;5.80;99.90;;;;;;4430645;27;659759;-68
2023/04/10 04:06:27;;;;;;;490.87;52.57;;;5.90;99.90;;;;;;4448803;28;660410;-68
2023/04/10 04:09:15;;;;;;;366.20;50.17;;;5.90;99.90;;;;;;4444073;28;659624;-68
2023/04/10 04:12:02;;;;;;;612.73;57.47;;;5.90;99.90;;;;;;4453515;28;659902;-68
2023/04/10 04:14:50;;;;;;;411.20;49.87;;;5.90;99.90;;;;;;4447542;28;659174;-68
2023/04/10 04:17:39;;;;;;;613.73;53.83;;;5.90;99.90;;;;;;4451235;28;660197;-67
2023/04/10 04:20:26;;;;;;;452.67;49.03;;;5.90;99.90;;;;;;4418290;28;660180;-68
2023/04/10 04:23:13;;;;;;;383.85;48.55;;;5.90;99.90;;;;;;4449450;28;660216;-68
2023/04/10 04:26:00;;;;;;;462.77;52.37;;;5.90;99.90;;;;;;4430556;28;659790;-68
2023/04/10 04:28:48;;;;;;;598.33;54.93;;;5.90;99.90;;;;;;4439508;28;660201;-68
2023/04/10 04:31:35;;;;;;;389.17;50.07;;;5.90;99.90;;;;;;4437125;28;660164;-68
2023/04/10 04:34:24;;;;;;;390.67;49.50;;;5.80;99.90;;;;;;4453092;28;660640;-68
2023/04/10 04:37:11;;;;;;;402.87;48.50;;;5.80;99.90;;;;;;4422095;28;659917;-68
2023/04/10 04:39:58;;;;;;;412.70;47.60;;;5.90;99.90;;;;;;4443663;28;660122;-68
2023/04/10 04:42:45;;;;;;;761.93;57.03;;;5.80;99.90;;;;;;4431139;28;659440;-68
2023/04/10 04:45:32;;;;;;;305.37;43.07;;;5.80;99.90;;;;;;4451077;28;660276;-68
2023/04/10 04:48:20;;;;;;;290.23;43.93;;;5.90;99.90;;;;;;4450275;28;659619;-68
2023/04/10 04:51:09;;;;;;;259.03;42.53;;;5.90;99.90;;;;;;4454480;28;659628;-68
2023/04/10 04:53:56;;;;;;;358.90;45.30;;;5.90;99.90;;;;;;4430756;28;659970;-68
2023/04/10 04:56:43;;;;;;;213.48;42.08;;;5.90;99.90;;;;;;4444618;28;661563;-68
2023/04/10 04:59:30;;;;;;;279.77;41.30;;;6.00;99.90;;;;;;4434616;28;659555;-68
2023/04/10 05:02:17;;;;;;;394.87;45.33;;;5.90;99.90;;;;;;4439441;28;660498;-68
2023/04/10 05:05:06;;;;;;;405.97;43.17;;;5.90;99.90;;;;;;4441937;28;659934;-68
2023/04/10 05:07:54;;;;;;;489.23;48.83;;;5.90;99.90;;;;;;4438630;28;660286;-68
2023/04/10 05:10:41;;;;;;;204.37;39.77;;;5.90;99.90;;;;;;4428606;28;660034;-68
2023/04/10 05:13:29;;;;;;;320.77;40.13;;;5.90;99.90;;;;;;4446150;28;660684;-68
2023/04/10 05:16:16;;;;;;;239.53;39.90;;;6.00;99.90;;;;;;4424144;28;659534;-68
2023/04/10 05:19:03;;;;;;;338.90;39.67;;;5.90;99.90;;;;;;4455614;28;660127;-68
2023/04/10 05:21:50;;;;;;;535.75;46.45;;;6.00;99.90;;;;;;4420709;28;659595;-68
2023/04/10 05:24:39;;;;;;;462.33;43.40;;;6.00;99.90;;;;;;4446845;28;660623;-68
2023/04/10 05:27:26;;;;;;;366.17;40.17;;;6.00;99.90;;;;;;4422936;28;659528;-68
2023/04/10 05:30:13;;;;;;;341.20;38.23;;;5.90;99.90;;;;;;4446530;28;660283;-68
2023/04/10 05:33:00;;;;;;;326.57;43.70;;;6.00;99.90;;;;;;4432872;28;659877;-68
2023/04/10 05:35:48;;;;;;;510.80;46.10;;;5.90;99.90;;;;;;4453968;28;660206;-68
2023/04/10 05:38:35;;;;;;;290.90;41.87;;;6.00;99.90;;;;;;4449422;28;660999;-68
2023/04/10 05:41:24;;;;;;;331.57;43.20;;;6.00;99.90;;;;;;4446788;28;660513;-68
2023/04/10 05:44:11;;;;;;;568.07;46.63;;;6.10;99.90;;;;;;4435680;28;660321;-68
2023/04/10 05:46:58;;;;;;;401.07;46.13;;;6.00;99.90;;;;;;4424818;28;660002;-68
2023/04/10 05:49:45;;;;;;;318.40;41.07;;;6.10;99.90;;;;;;4287031;28;660218;-68
2023/04/10 05:52:32;;;;;;;412.37;42.87;;;6.00;99.90;;;;;;4298945;27;659305;-68
2023/04/10 05:55:20;;;;;;;693.67;49.87;;;6.20;99.90;;;;;;4380126;28;659928;-68
2023/04/10 05:58:09;;;;;;;430.03;44.40;;;6.10;99.90;;;;;;4452403;28;660504;-68
2023/04/10 06:00:56;;;;;;;438.83;44.93;;;6.10;99.90;;;;;;4434855;28;659569;-68
2023/04/10 06:03:43;;;;;;;438.47;47.43;;;6.10;99.90;;;;;;4449861;28;660698;-68
2023/04/10 06:06:31;;;;;;;231.77;41.03;;;6.10;99.90;;;;;;4429084;28;659573;-68
2023/04/10 06:09:18;;;;;;;489.83;45.23;;;6.20;99.90;;;;;;4456878;28;660755;-68
2023/04/10 06:12:06;;;;;;;437.50;43.80;;;6.30;99.90;;;;;;4436840;28;660560;-69
2023/04/10 06:14:54;;;;;;;142.67;35.07;;;6.20;99.90;;;;;;4459937;28;660483;-67
2023/04/10 06:17:43;;;;;;;114.23;35.03;;;6.10;99.90;;;;;;4437122;28;659951;-68
2023/04/10 06:20:30;;;;;;;125.67;34.03;;;6.20;99.90;;;;;;4444879;28;659913;-68
2023/04/10 06:23:17;;;;;;;121.87;32.13;;;6.30;99.90;;;;;;4450197;28;660590;-69
2023/04/10 06:26:05;;;;;;;153.40;35.37;;;6.20;99.90;;;;;;4446912;28;661413;-68
2023/04/10 06:28:52;;;;;;;155.30;36.27;;;6.30;99.90;;;;;;4427903;28;660583;-68
2023/04/10 06:31:41;;;;;;;173.83;36.33;;;6.40;99.90;;;;;;4452037;28;659536;-68
2023/04/10 06:34:28;;;;;;;187.43;35.93;;;6.40;99.90;;;;;;4423793;28;659913;-68
2023/04/10 06:37:15;;;;;;;214.93;44.67;;;6.40;99.90;;;;;;4428770;28;660102;-68
2023/04/10 06:40:04;;;;;;;298.73;43.13;;;6.50;99.90;;;;;;4465259;28;660751;-68
2023/04/10 06:42:51;;;;;;;250.83;46.83;;;6.40;99.90;;;;;;4424924;28;659759;-68
2023/04/10 06:45:38;;;;;;;489.37;48.50;;;6.40;99.90;;;;;;4454493;28;660543;-68
2023/04/10 06:48:27;;;;;;;249.83;42.90;;;6.40;99.90;;;;;;4437424;28;659719;-68
2023/04/10 06:51:15;;;;;;;434.17;47.07;;;6.50;99.90;;;;;;4454901;27;659546;-68
2023/04/10 06:54:02;;;;;;;369.83;47.00;;;6.60;99.90;;;;;;4450928;28;659578;-68
2023/04/10 06:56:49;;;;;;;358.67;45.07;;;6.70;99.90;;;;;;4451460;28;659607;-68
2023/04/10 06:59:37;;;;;;;445.70;48.47;;;6.70;99.90;;;;;;4427684;28;660142;-68
2023/04/10 07:02:24;;;;;;;483.93;48.87;;;6.70;99.90;;;;;;4444125;28;659129;-68
2023/04/10 07:05:13;;;;;;;262.83;44.13;;;6.70;99.90;;;;;;4423651;28;659416;-68
2023/04/10 07:08:00;;;;;;;323.20;47.58;;;6.60;99.90;;;;;;4433470;28;660819;-68
2023/04/10 07:10:47;;;;;;;393.57;47.17;;;6.70;99.90;;;;;;4441571;28;660237;-68
2023/04/10 07:13:37;;;;;;;307.27;45.27;;;6.90;99.90;;;;;;4459017;28;660375;-68
2023/04/10 07:16:25;;;;;;;289.90;46.43;;;6.90;99.90;;;;;;4457998;28;659652;-68
2023/04/10 07:19:12;;;;;;;220.57;47.70;;;6.80;99.90;;;;;;4418781;28;660622;-68
2023/04/10 07:22:01;;;;;;;266.93;47.80;;;6.80;99.90;;;;;;4449150;28;659990;-68
2023/04/10 07:24:48;;;;;;;232.37;45.70;;;7.00;99.90;;;;;;4428709;28;659830;-68
2023/04/10 07:27:35;;;;;;;239.87;47.03;;;7.00;99.90;;;;;;4432256;28;660123;-68
2023/04/10 07:30:23;;;;;;;249.27;49.13;;;7.10;99.90;;;;;;4452598;28;660189;-68
2023/04/10 07:33:10;;;;;;;233.87;44.50;;;7.10;99.90;;;;;;4451179;28;661045;-68
2023/04/10 07:35:57;;;;;;;224.83;47.77;;;7.20;99.90;;;;;;4445118;28;660009;-68
2023/04/10 07:38:46;;;;;;;320.67;47.60;;;7.40;99.90;;;;;;4446292;28;660226;-68
2023/04/10 07:41:34;;;;;;;278.03;48.47;;;7.20;99.90;;;;;;4419597;28;660820;-68
2023/04/10 07:44:21;;;;;;;391.90;49.13;;;7.30;99.90;;;;;;4430342;28;659685;-68
2023/04/10 07:47:08;;;;;;;460.23;53.38;;;7.20;99.90;;;;;;4445975;28;660527;-68
2023/04/10 07:49:56;;;;;;;269.90;46.57;;;7.30;99.90;;;;;;4429946;27;659852;-68
2023/04/10 07:52:43;;;;;;;268.45;49.95;;;7.20;99.90;;;;;;4452517;28;660440;-69
2023/04/10 07:55:32;;;;;;;269.73;48.77;;;7.20;99.90;;;;;;4416606;28;659746;-69
2023/04/10 07:58:19;;;;;;;280.10;47.77;;;7.20;99.90;;;;;;4450530;28;660410;-70
2023/04/10 08:01:07;;;;;;;346.08;50.22;;;7.30;99.90;;;;;;4428332;28;659850;-71
2023/04/10 08:03:54;;;;;;;313.47;51.17;;;7.40;99.90;;;;;;4443332;28;659191;-70
2023/04/10 08:06:42;;;;;;;290.80;51.57;;;7.30;99.90;;;;;;4415268;28;660522;-71
2023/04/10 08:09:29;;;;;;;251.83;52.40;;;7.40;99.90;;;;;;4458469;28;660212;-70
2023/04/10 08:12:17;;;;;;;364.10;54.97;;;7.50;99.90;;;;;;4418552;28;659787;-70
2023/04/10 08:15:06;;;;;;;314.63;51.97;;;7.60;99.90;;;;;;4444633;28;659929;-70
2023/04/10 08:17:53;;;;;;;293.97;54.40;;;7.50;99.90;;;;;;4442362;28;661215;-70
2023/04/10 08:20:41;;;;;;;318.70;48.53;;;7.60;99.90;;;;;;4426579;28;659500;-71
2023/04/10 08:23:28;;;;;;;245.85;51.60;;;7.60;99.90;;;;;;4446354;28;660951;-71
2023/04/10 08:26:15;;;;;;;188.23;48.13;;;7.70;99.90;;;;;;4423916;28;660191;-71
2023/04/10 08:29:04;;;;;;;203.87;49.73;;;7.90;99.90;;;;;;4440884;28;659251;-71
2023/04/10 08:31:51;;;;;;;262.83;48.90;;;7.90;99.90;;;;;;4431481;28;660258;-71
2023/04/10 08:34:38;;;;;;;200.93;47.25;;;7.80;99.90;;;;;;4448190;28;660141;-71
2023/04/10 08:37:25;;;;;;;178.07;47.27;;;7.80;99.90;;;;;;4418753;28;660611;-72
2023/04/10 08:40:14;;;;;;;179.60;47.40;;;7.90;99.90;;;;;;4436478;28;660561;-71
2023/04/10 08:43:01;;;;;;;189.05;47.22;;;8.00;99.90;;;;;;4436780;28;661853;-71
2023/04/10 08:45:50;;;;;;;161.37;47.00;;;8.10;99.90;;;;;;4448814;28;659732;-71
2023/04/10 08:48:39;;;;;;;153.60;45.70;;;8.20;99.90;;;;;;4412084;28;660560;-71
2023/04/10 08:51:30;;;;;;;140.40;42.80;;;8.00;99.90;;;;;;4426534;28;660801;-71
2023/04/10 08:54:19;;;;;;;159.53;46.33;;;8.10;99.90;;;;;;4420885;28;659996;-72
2023/04/10 08:57:06;;;;;;;150.77;43.40;;;8.20;99.90;;;;;;4431600;28;660211;-71
2023/04/10 08:59:53;;;;;;;143.13;44.93;;;8.40;99.90;;;;;;4452057;28;660463;-72
2023/04/10 09:02:42;;;;;;;135.83;43.53;;;8.60;99.90;;;;;;4430805;28;660392;-71
2023/04/10 09:05:29;;;;;;;135.63;42.27;;;8.60;99.90;;;;;;4444107;28;659755;-71
2023/04/10 09:08:16;;;;;;;133.50;41.97;;;8.40;99.90;;;;;;4428223;28;660074;-71
2023/04/10 09:11:04;;;;;;;130.13;43.33;;;8.60;99.90;;;;;;4449245;28;659929;-72
2023/04/10 09:13:52;;;;;;;124.47;42.17;;;8.80;99.90;;;;;;4424897;28;660315;-71
2023/04/10 09:16:39;;;;;;;124.67;42.90;;;9.00;99.90;;;;;;4450718;28;659262;-71
2023/04/10 09:19:31;;;;;;;114.47;40.10;;;9.20;99.90;;;;;;4436981;28;659754;-71
2023/04/10 09:22:19;;;;;;;125.45;43.30;;;9.40;99.90;;;;;;4419313;28;659756;-71
2023/04/10 09:25:07;;;;;;;121.17;43.57;;;9.40;99.90;;;;;;4411534;28;659651;-72
2023/04/10 09:28:00;;;;;;;113.33;40.67;;;9.60;99.90;;;;;;4433203;28;661264;-72
2023/04/10 09:30:47;;;;;;;121.37;41.23;;;9.40;99.90;;;;;;4400958;28;660488;-72
2023/04/10 09:33:34;;;;;;;115.20;41.93;;;9.30;99.90;;;;;;4447983;28;659600;-72
2023/04/10 09:36:23;;;;;;;114.00;41.63;;;9.70;99.90;;;;;;4429107;28;660338;-71
2023/04/10 09:39:11;;;;;;;109.03;40.10;;;9.70;99.90;;;;;;4417529;28;659910;-71
2023/04/10 09:41:58;;;;;;;109.60;40.53;;;9.90;99.90;;;;;;4436122;28;660724;-72
2023/04/10 09:44:45;;;;;;;98.87;38.73;;;10.00;99.90;;;;;;4427426;28;660274;-71
2023/04/10 09:47:33;;;;;;;97.07;37.60;;;10.10;99.90;;;;;;4454027;28;659400;-72
2023/04/10 09:50:20;;;;;;;91.70;37.57;;;10.30;99.90;;;;;;4443648;28;659852;-72
2023/04/10 09:53:11;;;;;;;87.63;35.43;;;10.40;99.90;;;;;;4428228;28;660636;-72
2023/04/10 09:55:58;;;;;;;76.93;32.83;;;10.70;99.90;;;;;;4420857;28;659896;-72
2023/04/10 09:58:46;;;;;;;85.73;34.03;;;10.60;99.90;;;;;;4429112;28;660123;-72
2023/04/10 10:01:33;;;;;;;73.50;31.93;;;11.00;99.90;;;;;;4451927;28;660510;-73
2023/04/10 10:04:21;;;;;;;75.27;32.37;;;11.20;99.90;;;;;;4423015;28;659909;-72
2023/04/10 10:07:08;;;;;;;67.93;29.67;;;11.10;99.90;;;;;;4438242;28;660457;-71
2023/04/10 10:09:57;;;;;;;66.97;29.45;;;11.10;99.90;;;;;;4429096;28;659708;-71
2023/04/10 10:12:45;;;;;;;75.33;31.97;;;11.20;99.90;;;;;;4436325;28;659917;-72
2023/04/10 10:15:37;;;;;;;70.13;30.93;;;10.90;99.90;;;;;;4424914;28;660401;-72
2023/04/10 10:18:27;;;;;;;66.50;28.50;;;11.30;99.90;;;;;;4419762;28;659956;-73
2023/04/10 10:21:14;;;;;;;67.67;30.23;;;11.20;99.90;;;;;;4431221;28;661784;-72
2023/04/10 10:24:02;;;;;;;69.20;30.03;;;11.10;99.90;;;;;;4429566;28;660093;-72
2023/04/10 10:26:51;;;;;;;71.93;32.43;;;10.80;99.90;;;;;;4445643;28;659216;-73
2023/04/10 10:29:38;;;;;;;71.13;32.13;;;10.50;99.90;;;;;;4419054;28;660905;-73
2023/04/10 10:32:26;;;;;;;68.77;30.67;;;10.20;99.90;;;;;;4433222;28;659637;-72
2023/04/10 10:35:13;;;;;;;74.07;32.53;;;9.90;99.90;;;;;;4448828;27;662031;-72
2023/04/10 10:38:01;;;;;;;70.73;32.30;;;9.70;99.90;;;;;;4419338;28;659605;-72
2023/04/10 10:40:51;;;;;;;71.03;31.63;;;10.00;99.90;;;;;;4453593;28;659606;-72
2023/04/10 10:43:45;;;;;;;71.73;31.20;;;10.30;99.90;;;;;;4420574;28;660415;-71
2023/04/10 10:46:35;;;;;;;66.07;30.23;;;10.90;99.90;;;;;;4422196;28;659952;-73
2023/04/10 10:49:23;;;;;;;69.30;29.13;;;11.10;99.90;;;;;;4431247;28;661208;-72
2023/04/10 10:52:10;;;;;;;67.15;29.67;;;11.40;99.90;;;;;;4433164;28;660563;-71
2023/04/10 10:54:57;;;;;;;65.30;28.43;;;11.00;99.90;;;;;;4450675;28;660808;-72
2023/04/10 10:57:46;;;;;;;61.50;28.37;;;10.70;99.90;;;;;;4451316;28;660237;-71
2023/04/10 11:01:06;;;;;;;63.63;28.00;;;10.80;99.90;;;;;;4450215;28;660176;-72
2023/04/10 11:03:53;;;;;;;59.80;27.47;;;10.90;99.90;;;;;;4415267;28;660018;-72
2023/04/10 11:06:53;;;;;;;56.70;26.90;;;11.00;99.90;;;;;;4429569;28;660039;-72
2023/04/10 11:09:47;;;;;;;59.95;27.30;;;11.40;99.90;;;;;;4421112;28;659893;-71
2023/04/10 11:12:37;;;;;;;61.73;27.97;;;11.70;99.90;;;;;;4436247;28;659941;-71
2023/04/10 11:15:25;;;;;;;59.00;28.20;;;11.50;99.90;;;;;;4435262;28;660221;-71
2023/04/10 11:18:14;;;;;;;59.80;28.30;;;11.80;99.90;;;;;;4435999;28;660276;-70
2023/04/10 11:21:11;;;;;;;57.60;26.53;;;11.60;99.90;;;;;;4411552;28;659548;-72
2023/04/10 11:24:05;;;;;;;57.10;24.97;;;11.60;99.90;;;;;;4426569;28;660134;-73
2023/04/10 11:26:52;;;;;;;57.83;26.50;;;12.00;99.90;;;;;;4390330;28;660469;-73
2023/04/10 11:29:39;;;;;;;46.92;23.65;;;12.70;99.90;;;;;;4436043;28;660155;-73
2023/04/10 11:32:26;;;;;;;45.37;23.50;;;12.70;99.90;;;;;;4412214;28;661158;-73
2023/04/10 11:35:18;;;;;;;44.23;21.77;;;13.10;99.90;;;;;;4450153;28;659637;-73
2023/04/10 11:38:09;;;;;;;39.93;20.87;;;13.30;99.90;;;;;;4405558;28;660342;-72
2023/04/10 11:41:02;;;;;;;41.00;19.97;;;13.30;99.90;;;;;;4418270;28;659781;-73
2023/04/10 11:43:51;;;;;;;39.90;19.83;;;13.30;99.90;;;;;;4413752;28;659916;-73
2023/04/10 11:46:39;;;;;;;36.83;19.33;;;13.70;99.90;;;;;;4414312;28;659529;-72
2023/04/10 11:49:27;;;;;;;39.17;19.60;;;14.10;99.90;;;;;;4412636;28;659695;-72
2023/04/10 11:52:24;;;;;;;41.23;20.87;;;14.20;99.90;;;;;;4387676;28;660229;-71
2023/04/10 11:55:11;;;;;;;44.13;21.03;;;15.00;99.90;;;;;;4273149;28;659910;-72
2023/04/10 11:57:58;;;;;;;38.33;19.47;;;15.80;99.90;;;;;;4315426;28;659753;-72
2023/04/10 12:00:45;;;;;;;34.73;18.00;;;16.80;99.90;;;;;;4418278;28;659848;-72
2023/04/10 12:03:34;;;;;;;33.00;16.80;;;16.80;99.90;;;;;;4441646;28;660542;-73
2023/04/10 12:06:21;;;;;;;34.40;17.30;;;16.10;99.90;;;;;;4426911;28;659648;-72
2023/04/10 12:09:14;;;;;;;22.60;12.77;;;16.30;99.90;;;;;;4452963;27;660680;-73
2023/04/10 12:12:03;;;;;;;22.07;13.03;;;17.10;99.90;;;;;;4414972;28;659457;-72
2023/04/10 12:14:50;;;;;;;28.03;12.90;;;17.40;99.90;;;;;;4441851;28;659675;-73
2023/04/10 12:17:37;;;;;;;29.03;13.83;;;17.20;99.90;;;;;;4444749;28;660063;-73
2023/04/10 12:20:27;;;;;;;26.30;14.30;;;17.90;99.90;;;;;;4445174;28;659552;-72
2023/04/10 12:23:15;;;;;;;24.27;13.27;;;17.70;99.90;;;;;;4449263;28;660104;-73
2023/04/10 12:26:12;;;;;;;27.60;14.53;;;17.50;99.90;;;;;;4449706;28;660306;-72
2023/04/10 12:28:59;;;;;;;29.03;15.17;;;17.00;99.90;;;;;;4417077;28;660198;-73
2023/04/10 12:31:46;;;;;;;26.13;14.20;;;16.80;99.90;;;;;;4431293;28;659444;-72
2023/04/10 12:34:33;;;;;;;32.38;14.27;;;16.60;99.90;;;;;;4435929;28;660251;-71
2023/04/10 12:37:20;;;;;;;30.33;14.53;;;16.60;99.90;;;;;;4426779;28;659653;-72
2023/04/10 12:40:09;;;;;;;25.47;13.70;;;16.60;99.90;;;;;;4443205;28;661043;-73
2023/04/10 12:42:57;;;;;;;25.80;14.20;;;16.80;99.90;;;;;;4427301;28;659765;-72
2023/04/10 12:45:45;;;;;;;32.77;14.73;;;17.10;99.90;;;;;;4438935;28;659719;-72
2023/04/10 12:48:32;;;;;;;25.77;13.00;;;17.60;99.90;;;;;;4453094;28;661063;-72
2023/04/10 12:51:19;;;;;;;23.13;13.40;;;17.30;99.90;;;;;;4444991;28;659980;-72
2023/04/10 12:54:07;;;;;;;24.57;12.63;;;17.20;99.90;;;;;;4423161;28;659715;-72
2023/04/10 12:56:54;;;;;;;25.33;11.70;;;17.30;99.90;;;;;;4432022;28;659569;-72
2023/04/10 12:59:43;;;;;;;23.73;12.00;;;16.60;99.30;;;;;;4424993;28;660009;-72
2023/04/10 13:02:31;;;;;;;24.63;13.03;;;16.50;99.90;;;;;;4428317;28;659809;-72
2023/04/10 13:05:18;;;;;;;22.87;13.40;;;15.70;99.90;;;;;;4450489;28;660531;-72
2023/04/10 13:08:05;;;;;;;28.03;12.70;;;15.90;99.90;;;;;;4430846;28;659521;-71
2023/04/10 13:10:53;;;;;;;24.53;12.63;;;15.80;99.90;;;;;;4431564;28;660545;-72
2023/04/10 13:13:41;;;;;;;29.17;13.20;;;15.60;99.90;;;;;;4419015;28;659848;-72
2023/04/10 13:16:29;;;;;;;23.63;12.63;;;14.70;99.90;;;;;;4442008;28;660368;-73
2023/04/10 13:19:16;;;;;;;25.20;13.47;;;14.60;99.90;;;;;;4412743;28;659826;-72
2023/04/10 13:22:03;;;;;;;47.23;24.23;;;14.40;99.90;;;;;;4439917;28;660564;-72
2023/04/10 13:24:51;;;;;;;49.00;24.67;;;14.00;99.90;;;;;;4423419;28;659575;-72
2023/04/10 13:27:38;;;;;;;51.73;24.37;;;14.30;99.90;;;;;;4445477;28;660633;-73
2023/04/10 13:30:25;;;;;;;48.87;22.93;;;14.90;99.90;;;;;;4410519;28;660010;-72
2023/04/10 13:33:14;;;;;;;44.27;22.40;;;15.10;99.90;;;;;;4437578;28;660193;-73
2023/04/10 13:36:01;;;;;;;35.33;17.33;;;16.20;99.90;;;;;;4417436;28;659814;-70
2023/04/10 13:38:48;;;;;;;36.87;18.67;;;16.50;99.90;;;;;;4447933;28;660610;-71
2023/04/10 13:41:35;;;;;;;35.73;17.03;;;15.90;99.90;;;;;;4417163;28;659936;-71
2023/04/10 13:44:23;;;;;;;44.47;22.10;;;15.30;99.90;;;;;;4439800;28;661069;-70
2023/04/10 13:47:10;;;;;;;44.27;22.10;;;14.50;99.90;;;;;;4443860;28;660413;-71
2023/04/10 13:49:59;;;;;;;47.60;23.33;;;13.90;99.90;;;;;;4445250;28;660790;-71
2023/04/10 13:52:46;;;;;;;47.00;22.67;;;13.90;99.90;;;;;;4418500;28;659809;-71
2023/04/10 13:55:35;;;;;;;41.83;21.43;;;13.80;99.90;;;;;;4434911;28;660756;-71
2023/04/10 13:58:22;;;;;;;44.57;20.27;;;13.80;99.90;;;;;;4435181;28;661999;-71
2023/04/10 14:01:11;;;;;;;42.37;20.90;;;13.70;99.90;;;;;;4449627;28;660082;-70
2023/04/10 14:03:58;;;;;;;37.47;17.90;;;13.90;99.90;;;;;;4414788;28;661031;-71